Fort Edward, New York
Current Conditions -  °F | °C
As of 9:13 AM on Monday 24 Nov 2014 (Local Time) from KGFL Reporting Station
Light Rain Light Rain  
Wind Chill: 52°   Ceiling: 400
Heat Index: 52°   Visibility: 2.5mi
Dew Point: 50°   Wind: 7mph
Humidity: 93%   Direction: 220°SW
Pressure: 29.57"   Gusts: NA
Location:  43.27°N, 73.58°W
Report Text: KGFL 241413Z AUTO 22006KT 2 1/2SM -RA BR OVC004 11/10 A2957 RMK AO2 RAB02 P0000 T01110100
Loading
Personal Weather Stations






























Interactive Weather Map New forecast layout! Learn more

10-Day Weather Forecast

Advertisements
Track Severe Weather on mobile